Time;durP1;ratioP1;P1;durP2;ratioP2;P2;SDS_P1;SDS_P2;PMS_P1;PMS_P2;Temp;Humidity;BMP_temperature;BMP_pressure;BME280_temperature;BME280_humidity;BME280_pressure;Samples;Min_cycle;Max_cycle;Signal;HPM_P1;HPM_P2
2022/09/23 00:02:41;;;;;;;5.12;2.00;;;7.60;99.90;;;;;;7384235;32;20141;-59
2022/09/23 00:06:43;;;;;;;3.90;1.98;;;7.60;99.90;;;;;;7373621;32;20471;-59
2022/09/23 00:10:45;;;;;;;5.57;1.95;;;7.70;99.90;;;;;;7378895;32;20205;-59
2022/09/23 00:15:04;;;;;;;4.07;1.70;;;7.70;99.90;;;;;;7378067;32;20185;-59
2022/09/23 00:19:06;;;;;;;4.25;2.00;;;7.80;99.90;;;;;;7377606;32;20202;-59
2022/09/23 00:23:07;;;;;;;5.25;1.80;;;7.80;99.90;;;;;;7384929;32;20510;-59
2022/09/23 00:27:09;;;;;;;2.72;1.70;;;7.80;99.90;;;;;;7371287;32;20212;-59
2022/09/23 00:31:14;;;;;;;4.82;1.92;;;7.90;99.90;;;;;;7372822;32;20215;-60
2022/09/23 00:35:17;;;;;;;3.65;2.00;;;7.80;99.90;;;;;;7377525;32;20687;-59
2022/09/23 00:39:18;;;;;;;8.20;2.10;;;7.90;99.90;;;;;;7377477;31;20480;-60
2022/09/23 00:43:49;;;;;;;2.85;1.58;;;7.90;99.90;;;;;;7376459;32;20234;-59
2022/09/23 00:47:55;;;;;;;3.72;1.80;;;7.90;99.90;;;;;;7384782;32;20134;-59
2022/09/23 00:52:05;;;;;;;4.87;1.98;;;7.90;99.90;;;;;;7371588;31;20202;-59
2022/09/23 00:56:10;;;;;;;1.92;1.50;;;7.90;99.90;;;;;;7365865;32;20266;-60
2022/09/23 01:00:13;;;;;;;4.70;1.87;;;7.90;99.90;;;;;;7369710;32;20168;-59
2022/09/23 01:04:15;;;;;;;4.15;2.03;;;8.00;99.90;;;;;;7387362;31;20484;-59
2022/09/23 01:08:18;;;;;;;3.70;1.95;;;7.90;99.90;;;;;;7365354;32;20198;-59
2022/09/23 01:12:36;;;;;;;5.55;2.12;;;7.90;99.90;;;;;;7390146;31;20106;-59
2022/09/23 01:16:48;;;;;;;3.20;2.22;;;7.90;99.90;;;;;;7369443;32;20116;-59
2022/09/23 01:21:05;;;;;;;6.70;1.90;;;7.90;99.90;;;;;;7372996;32;20516;-59
2022/09/23 01:25:12;;;;;;;4.65;2.10;;;7.80;99.90;;;;;;7379300;32;20218;-59
2022/09/23 01:29:49;;;;;;;19.80;12.85;;;7.90;99.90;;;;;;7364302;32;20149;-59
2022/09/23 01:34:00;;;;;;;4.70;2.10;;;7.90;99.90;;;;;;7366283;32;20223;-60
2022/09/23 01:38:02;;;;;;;8.70;4.55;;;7.80;99.90;;;;;;7369316;32;20703;-60
2022/09/23 01:42:24;;;;;;;4.97;2.78;;;7.80;99.90;;;;;;7370261;32;20194;-60
2022/09/23 01:46:40;;;;;;;3.05;1.95;;;7.80;99.90;;;;;;7370742;32;20108;-59
2022/09/23 01:51:18;;;;;;;4.43;2.00;;;7.80;99.90;;;;;;7370646;32;20133;-59
2022/09/23 01:55:40;;;;;;;4.50;1.80;;;7.70;99.90;;;;;;7376232;32;20111;-59
2022/09/23 01:59:47;;;;;;;3.25;1.37;;;7.80;99.90;;;;;;7372832;32;20114;-60
2022/09/23 02:04:03;;;;;;;3.60;1.70;;;7.80;99.90;;;;;;7379757;32;20127;-60
2022/09/23 02:08:11;;;;;;;4.50;1.80;;;7.80;99.90;;;;;;7365851;32;20115;-60
2022/09/23 02:12:17;;;;;;;3.92;1.52;;;7.70;99.90;;;;;;7361764;32;20822;-60
2022/09/23 02:16:27;;;;;;;7.50;1.85;;;7.70;99.90;;;;;;7363526;32;20515;-59
2022/09/23 02:20:33;;;;;;;4.75;1.95;;;7.70;99.90;;;;;;7369221;32;20126;-60
2022/09/23 02:24:38;;;;;;;3.12;1.62;;;7.70;99.90;;;;;;7367345;32;20106;-60
2022/09/23 02:28:59;;;;;;;5.85;1.60;;;7.80;99.90;;;;;;7371403;32;20133;-60
2022/09/23 02:33:07;;;;;;;9.73;2.15;;;7.80;99.90;;;;;;7374712;32;20165;-61
2022/09/23 02:37:22;;;;;;;3.58;1.67;;;7.80;99.90;;;;;;7379547;32;20220;-60
2022/09/23 02:41:27;;;;;;;2.20;1.60;;;7.90;99.90;;;;;;7381638;32;20158;-61
2022/09/23 02:45:29;;;;;;;5.82;1.80;;;7.90;99.90;;;;;;7363830;32;20103;-59
2022/09/23 02:49:34;;;;;;;3.50;1.70;;;7.90;99.90;;;;;;7371621;32;20126;-60
2022/09/23 02:53:36;;;;;;;4.90;1.52;;;7.90;99.90;;;;;;7366689;32;20098;-59
2022/09/23 02:57:37;;;;;;;4.00;2.05;;;7.90;99.90;;;;;;7370539;32;20225;-60
2022/09/23 03:02:12;;;;;;;3.85;2.00;;;7.90;99.90;;;;;;7375517;32;20171;-59
2022/09/23 03:06:14;;;;;;;5.25;1.90;;;7.90;99.90;;;;;;7362013;32;20157;-59
2022/09/23 03:10:28;;;;;;;3.25;1.80;;;7.90;99.90;;;;;;7375219;32;20106;-59
2022/09/23 03:14:43;;;;;;;4.53;1.77;;;7.90;99.90;;;;;;7369610;32;20772;-59
2022/09/23 03:19:16;;;;;;;4.90;2.05;;;7.80;99.90;;;;;;7367544;32;20217;-58
2022/09/23 03:23:24;;;;;;;4.55;1.67;;;7.80;99.90;;;;;;7366007;32;20475;-59
2022/09/23 03:27:29;;;;;;;5.75;1.52;;;7.70;99.90;;;;;;7372569;32;20126;-60
2022/09/23 03:31:32;;;;;;;5.28;1.75;;;7.70;99.90;;;;;;7358089;32;20838;-60
2022/09/23 03:40:23;;;;;;;5.18;1.87;;;7.50;99.90;;;;;;7370450;32;20270;-60
2022/09/23 03:44:27;;;;;;;4.53;1.70;;;7.50;99.90;;;;;;7366664;32;20136;-60
2022/09/23 03:48:29;;;;;;;4.78;1.80;;;7.60;99.90;;;;;;7358675;32;20148;-59
2022/09/23 03:52:31;;;;;;;3.83;1.98;;;7.40;99.90;;;;;;7367967;32;20149;-60
2022/09/23 03:56:32;;;;;;;4.82;2.08;;;7.40;99.90;;;;;;7377866;32;20507;-59
2022/09/23 04:00:35;;;;;;;5.97;2.20;;;7.40;99.90;;;;;;7371500;32;20133;-59
2022/09/23 04:04:37;;;;;;;3.10;1.42;;;7.30;99.90;;;;;;7376042;32;20526;-60
2022/09/23 04:08:39;;;;;;;5.00;1.98;;;7.30;99.90;;;;;;7364447;32;20582;-60
2022/09/23 04:12:41;;;;;;;2.92;1.85;;;7.30;99.90;;;;;;7366518;32;20112;-59
2022/09/23 04:16:43;;;;;;;5.60;2.05;;;7.20;99.90;;;;;;7365142;32;20432;-60
2022/09/23 04:20:45;;;;;;;4.85;1.90;;;7.20;99.90;;;;;;7376911;32;20330;-60
2022/09/23 04:24:48;;;;;;;5.18;2.17;;;7.20;99.90;;;;;;7364515;32;20110;-60
2022/09/23 04:28:49;;;;;;;3.97;1.83;;;7.10;99.90;;;;;;7370675;32;20104;-60
2022/09/23 04:32:52;;;;;;;2.83;1.90;;;7.10;99.90;;;;;;7375593;32;20115;-59
2022/09/23 04:36:53;;;;;;;2.62;1.80;;;7.20;99.90;;;;;;7368171;32;20138;-60
2022/09/23 04:40:55;;;;;;;5.20;2.20;;;7.20;99.90;;;;;;7375122;32;20115;-60
2022/09/23 04:44:57;;;;;;;3.12;1.80;;;7.30;99.90;;;;;;7369166;32;20270;-60
2022/09/23 04:48:59;;;;;;;4.55;2.28;;;7.40;99.90;;;;;;7376328;32;20114;-60
2022/09/23 04:53:01;;;;;;;4.57;1.80;;;7.50;99.90;;;;;;7373056;32;20193;-60
2022/09/23 04:57:03;;;;;;;3.12;1.67;;;7.50;99.90;;;;;;7375347;32;20134;-60
2022/09/23 05:01:25;;;;;;;13.93;2.97;;;7.60;99.90;;;;;;7371843;32;20365;-60
2022/09/23 05:05:29;;;;;;;7.05;4.00;;;7.60;99.90;;;;;;7374223;32;20276;-61
2022/09/23 05:09:30;;;;;;;8.25;2.90;;;7.60;99.90;;;;;;7364964;32;20202;-60
2022/09/23 05:13:32;;;;;;;4.68;2.53;;;7.70;99.90;;;;;;7381415;32;20111;-59
2022/09/23 05:17:36;;;;;;;5.60;1.83;;;7.70;99.90;;;;;;7373511;32;20201;-59
2022/09/23 05:21:38;;;;;;;9.02;3.10;;;7.60;99.90;;;;;;7368786;32;20261;-61
2022/09/23 05:25:39;;;;;;;6.57;2.17;;;7.60;99.90;;;;;;7371977;31;20559;-61
2022/09/23 05:29:42;;;;;;;3.58;2.30;;;7.60;99.90;;;;;;7369797;32;20689;-61
2022/09/23 05:33:47;;;;;;;4.50;2.95;;;7.50;99.90;;;;;;7383718;32;20108;-61
2022/09/23 05:37:49;;;;;;;11.35;4.95;;;7.50;99.90;;;;;;7377001;32;20612;-62
2022/09/23 05:41:52;;;;;;;6.32;3.30;;;7.40;99.90;;;;;;7366629;32;20111;-62
2022/09/23 05:46:04;;;;;;;6.00;3.70;;;7.40;99.90;;;;;;7364996;32;20917;-62
2022/09/23 05:50:09;;;;;;;6.62;3.28;;;7.50;99.90;;;;;;7379130;32;20194;-63
2022/09/23 05:54:11;;;;;;;7.70;4.82;;;7.40;99.90;;;;;;7374178;31;20230;-62
2022/09/23 05:58:13;;;;;;;7.68;5.43;;;7.40;99.90;;;;;;7376121;32;20337;-63
2022/09/23 06:02:15;;;;;;;10.32;6.30;;;7.50;99.90;;;;;;7378902;32;20551;-63
2022/09/23 06:06:19;;;;;;;8.40;5.10;;;7.50;99.90;;;;;;7370978;32;20139;-63
2022/09/23 06:10:21;;;;;;;6.53;3.22;;;7.60;99.90;;;;;;7374716;31;20111;-62
2022/09/23 06:14:22;;;;;;;7.05;2.30;;;7.60;99.90;;;;;;7374386;32;20151;-62
2022/09/23 06:18:24;;;;;;;6.30;4.82;;;7.70;99.90;;;;;;7364505;32;20102;-63
2022/09/23 06:22:26;;;;;;;6.65;3.85;;;7.80;99.90;;;;;;7375076;32;20103;-62
2022/09/23 06:26:32;;;;;;;18.52;9.07;;;7.90;99.90;;;;;;7373265;32;20269;-62
2022/09/23 06:30:34;;;;;;;10.85;6.93;;;8.00;99.90;;;;;;7355385;32;22193;-62
2022/09/23 06:34:35;;;;;;;9.13;5.12;;;8.10;99.90;;;;;;7373945;32;20229;-62
2022/09/23 06:38:51;;;;;;;6.07;3.85;;;8.40;99.90;;;;;;7365452;32;20126;-62
2022/09/23 06:42:58;;;;;;;5.00;2.50;;;8.60;99.90;;;;;;7374506;32;20521;-62
2022/09/23 06:47:00;;;;;;;4.70;2.00;;;9.00;99.90;;;;;;7360786;32;20216;-62
2022/09/23 06:51:04;;;;;;;3.85;2.03;;;9.30;99.90;;;;;;7368491;32;20131;-64
2022/09/23 06:55:07;;;;;;;5.30;1.83;;;9.70;99.90;;;;;;7366480;32;20460;-63
2022/09/23 06:59:11;;;;;;;6.05;1.70;;;10.10;99.90;;;;;;7367712;32;20115;-63
2022/09/23 07:03:13;;;;;;;4.30;1.75;;;10.40;99.90;;;;;;7369046;32;20107;-63
2022/09/23 07:07:15;;;;;;;5.68;1.98;;;10.60;99.90;;;;;;7368512;32;20241;-63
2022/09/23 07:11:21;;;;;;;3.58;1.60;;;10.90;99.90;;;;;;7366908;32;20103;-62
2022/09/23 07:15:22;;;;;;;2.70;1.50;;;11.10;99.90;;;;;;7360460;32;20253;-64
2022/09/23 07:19:25;;;;;;;5.82;1.30;;;11.20;99.90;;;;;;7366100;32;20123;-62
2022/09/23 07:23:26;;;;;;;3.53;1.77;;;11.40;99.90;;;;;;7368666;32;20106;-63
2022/09/23 07:27:28;;;;;;;3.50;1.50;;;11.70;99.90;;;;;;7364442;32;20224;-63
2022/09/23 07:31:31;;;;;;;2.92;1.65;;;11.80;99.90;;;;;;7369100;32;20137;-63
2022/09/23 07:35:41;;;;;;;5.50;1.70;;;12.00;99.90;;;;;;7371382;31;20167;-63
2022/09/23 07:39:44;;;;;;;6.72;1.77;;;12.20;99.90;;;;;;7375190;32;20151;-63
2022/09/23 07:43:46;;;;;;;4.45;1.58;;;12.30;99.90;;;;;;7369889;31;20107;-63
2022/09/23 07:47:48;;;;;;;3.42;1.87;;;12.40;99.90;;;;;;7366289;32;20640;-63
2022/09/23 07:51:51;;;;;;;5.30;1.67;;;12.60;99.90;;;;;;7371720;32;20137;-63
2022/09/23 07:55:56;;;;;;;4.28;1.90;;;12.60;99.90;;;;;;7373253;32;20149;-63
2022/09/23 07:59:59;;;;;;;4.47;1.70;;;12.80;99.90;;;;;;7369193;32;20882;-63
2022/09/23 08:04:09;;;;;;;3.08;1.52;;;12.80;99.90;;;;;;7367214;32;20594;-63
2022/09/23 08:08:12;;;;;;;2.83;1.77;;;13.00;99.90;;;;;;7378097;32;20103;-64
2022/09/23 08:12:16;;;;;;;5.35;2.00;;;13.10;99.90;;;;;;7369390;32;21777;-64
2022/09/23 08:16:19;;;;;;;3.92;1.98;;;13.10;99.90;;;;;;7374590;32;20210;-63
2022/09/23 08:24:47;;;;;;;5.03;1.83;;;13.30;99.90;;;;;;7365880;32;20703;-64
2022/09/23 08:28:52;;;;;;;2.22;1.55;;;13.50;99.90;;;;;;7374973;32;20652;-62
2022/09/23 08:32:54;;;;;;;3.70;1.55;;;13.60;99.90;;;;;;7376993;32;20133;-63
2022/09/23 08:36:55;;;;;;;3.50;2.00;;;13.90;99.90;;;;;;7369780;32;20433;-63
2022/09/23 08:41:38;;;;;;;3.95;1.80;;;13.90;99.90;;;;;;7369246;32;20103;-63
2022/09/23 08:45:42;;;;;;;2.87;1.50;;;14.20;99.90;;;;;;7369310;32;20111;-64
2022/09/23 08:50:07;;;;;;;5.85;1.95;;;14.30;99.90;;;;;;7367308;32;20118;-64
2022/09/23 08:54:11;;;;;;;3.33;1.65;;;14.40;99.90;;;;;;7367736;32;20332;-64
2022/09/23 08:58:22;;;;;;;5.07;1.70;;;14.30;99.90;;;;;;7373835;32;20107;-65
2022/09/23 09:02:27;;;;;;;3.85;1.87;;;14.40;99.90;;;;;;7364225;32;20130;-63
2022/09/23 09:06:43;;;;;;;2.92;1.45;;;14.40;99.90;;;;;;7374950;32;20262;-66
2022/09/23 09:10:57;;;;;;;3.53;2.33;;;14.40;99.90;;;;;;7364586;32;20115;-64
2022/09/23 09:15:06;;;;;;;4.95;1.80;;;14.50;99.90;;;;;;7370646;32;20197;-63
2022/09/23 09:19:17;;;;;;;2.70;1.75;;;14.40;99.90;;;;;;7372800;32;20424;-63
2022/09/23 09:23:50;;;;;;;4.37;1.52;;;14.50;99.90;;;;;;7366434;32;20220;-63
2022/09/23 09:27:54;;;;;;;3.95;1.70;;;14.70;99.90;;;;;;7370993;32;20107;-65
2022/09/23 09:31:56;;;;;;;2.78;1.62;;;15.00;99.90;;;;;;7373868;32;20111;-64
2022/09/23 09:36:09;;;;;;;3.90;1.85;;;15.50;99.90;;;;;;7374715;32;20384;-64
2022/09/23 09:40:11;;;;;;;3.60;1.70;;;16.10;99.90;;;;;;7368013;32;20126;-64
2022/09/23 09:44:36;;;;;;;2.60;1.52;;;16.50;99.90;;;;;;7373713;32;20114;-64
2022/09/23 09:48:48;;;;;;;6.78;1.92;;;16.90;99.90;;;;;;7369998;32;20198;-64
2022/09/23 09:53:12;;;;;;;3.95;1.55;;;17.50;99.90;;;;;;7372344;32;20249;-64
2022/09/23 09:57:30;;;;;;;2.50;1.45;;;17.70;99.90;;;;;;7360769;32;20127;-64
2022/09/23 10:01:36;;;;;;;5.37;1.50;;;18.20;99.90;;;;;;7365748;32;20108;-64
2022/09/23 10:05:44;;;;;;;6.00;1.60;;;18.70;99.90;;;;;;7372994;32;20137;-64
2022/09/23 10:09:50;;;;;;;2.42;1.50;;;18.90;99.90;;;;;;7365602;32;20107;-64
2022/09/23 10:14:25;;;;;;;3.95;1.37;;;19.00;99.90;;;;;;7379899;32;20128;-64
2022/09/23 10:18:34;;;;;;;4.12;1.60;;;19.10;99.90;;;;;;7343431;32;20535;-64
2022/09/23 10:22:41;;;;;;;4.12;1.40;;;19.10;99.90;;;;;;7366957;32;20595;-64
2022/09/23 10:26:51;;;;;;;2.75;1.50;;;18.90;99.90;;;;;;7363722;32;20170;-64
2022/09/23 10:31:23;;;;;;;4.32;1.42;;;18.70;99.90;;;;;;7368462;32;20204;-64
2022/09/23 10:35:27;;;;;;;2.87;1.33;;;18.30;99.90;;;;;;7367471;32;20102;-64
2022/09/23 10:49:03;;;;;;;4.37;1.80;;;17.60;99.90;;;;;;7364935;32;20592;-64
2022/09/23 10:53:18;;;;;;;4.12;1.50;;;17.50;99.90;;;;;;7369274;32;20106;-64
2022/09/23 10:57:45;;;;;;;4.45;1.45;;;17.40;99.90;;;;;;7367466;32;20202;-64
2022/09/23 11:02:01;;;;;;;3.00;1.60;;;17.50;99.90;;;;;;7374927;32;20562;-64
2022/09/23 11:06:19;;;;;;;3.42;1.60;;;17.40;99.90;;;;;;7368240;32;20205;-65
2022/09/23 11:10:58;;;;;;;4.95;1.60;;;17.50;99.90;;;;;;7359590;32;20221;-63
2022/09/23 11:15:38;;;;;;;5.72;1.70;;;17.70;99.90;;;;;;7375430;32;20201;-64
2022/09/23 11:19:55;;;;;;;5.00;1.73;;;17.80;99.90;;;;;;7352145;32;20190;-64
2022/09/23 11:24:28;;;;;;;3.85;1.90;;;17.90;99.90;;;;;;7368709;32;20205;-63
2022/09/23 11:28:56;;;;;;;3.58;1.73;;;17.70;99.90;;;;;;7367603;32;20206;-63
2022/09/23 11:33:13;;;;;;;;;;;17.90;99.90;;;;;;7368371;32;20129;-64
2022/09/23 11:37:20;;;;;;;6.97;1.80;;;18.30;99.90;;;;;;7366099;32;20018;-64
2022/09/23 11:41:30;;;;;;;5.53;1.85;;;18.40;99.90;;;;;;7367613;32;20322;-64
2022/09/23 11:45:58;;;;;;;7.20;1.95;;;18.60;99.90;;;;;;7360089;32;20190;-64
2022/09/23 11:50:23;;;;;;;3.85;1.87;;;18.70;99.90;;;;;;7373800;32;20224;-64
2022/09/23 11:54:52;;;;;;;5.45;1.75;;;18.80;99.90;;;;;;7372926;32;20195;-64
2022/09/23 11:59:14;;;;;;;4.37;1.73;;;19.00;99.90;;;;;;7334791;32;20102;-64
2022/09/23 12:03:41;;;;;;;5.53;2.35;;;19.20;99.90;;;;;;7361916;32;20478;-64
2022/09/23 12:07:58;;;;;;;4.03;1.92;;;19.00;99.90;;;;;;7358831;32;20231;-64
2022/09/23 12:12:26;;;;;;;5.32;2.00;;;19.00;99.90;;;;;;7364909;32;20157;-64
2022/09/23 12:16:27;;;;;;;;;;;19.00;99.90;;;;;;7364306;32;20111;-64
2022/09/23 12:20:32;;;;;;;6.57;2.10;;;19.10;99.90;;;;;;7377880;32;20104;-60
2022/09/23 12:24:52;;;;;;;3.42;1.83;;;19.00;99.90;;;;;;7369070;32;20134;-60
2022/09/23 12:29:00;;;;;;;9.23;2.35;;;18.80;99.90;;;;;;7372134;32;20103;-60
2022/09/23 12:33:26;;;;;;;3.40;1.80;;;18.80;99.90;;;;;;7377003;32;20115;-60
2022/09/23 12:37:32;;;;;;;5.55;2.08;;;18.50;99.90;;;;;;7380060;32;20520;-60
2022/09/23 12:41:40;;;;;;;3.20;1.77;;;18.50;99.90;;;;;;7374894;32;20111;-60
2022/09/23 12:45:43;;;;;;;4.90;1.70;;;18.40;99.90;;;;;;7368680;32;20626;-60
2022/09/23 12:49:44;;;;;;;5.93;1.92;;;18.40;99.90;;;;;;7371279;32;20099;-60
2022/09/23 12:53:58;;;;;;;4.40;1.50;;;18.20;99.90;;;;;;7369619;32;20579;-60
2022/09/23 12:58:00;;;;;;;4.32;1.50;;;18.20;99.90;;;;;;7373581;32;20220;-59
2022/09/23 13:02:29;;;;;;;4.35;1.60;;;18.10;99.90;;;;;;7377682;32;20416;-61
2022/09/23 13:06:39;;;;;;;3.50;1.45;;;18.00;99.90;;;;;;7381775;32;20246;-62
2022/09/23 13:10:48;;;;;;;3.53;1.50;;;17.90;99.90;;;;;;7371407;32;20180;-64
2022/09/23 13:14:53;;;;;;;6.62;1.50;;;17.80;99.90;;;;;;7379295;32;20126;-63
2022/09/23 13:19:00;;;;;;;8.25;1.83;;;17.70;99.90;;;;;;7393375;32;20503;-63
2022/09/23 13:23:04;;;;;;;3.75;1.42;;;17.80;99.90;;;;;;7362479;32;20222;-64
2022/09/23 13:27:22;;;;;;;14.38;1.98;;;17.70;99.90;;;;;;7367236;32;20126;-63
2022/09/23 13:31:24;;;;;;;4.32;1.92;;;17.70;99.90;;;;;;7371816;32;20369;-64
2022/09/23 13:35:33;;;;;;;6.82;1.90;;;17.60;99.90;;;;;;7361449;32;20193;-63
2022/09/23 13:39:35;;;;;;;6.45;1.80;;;17.50;99.90;;;;;;7363928;32;20103;-62
2022/09/23 13:43:41;;;;;;;5.40;1.83;;;17.60;99.90;;;;;;7374509;32;20584;-63
2022/09/23 13:47:44;;;;;;;6.87;1.62;;;17.50;99.90;;;;;;7352177;32;20139;-63
2022/09/23 13:51:46;;;;;;;6.15;1.80;;;17.50;99.90;;;;;;7366921;32;20218;-63
2022/09/23 13:55:58;;;;;;;5.53;1.85;;;17.50;99.90;;;;;;7381646;32;20104;-63
2022/09/23 14:00:15;;;;;;;6.25;1.55;;;17.40;99.90;;;;;;7375522;32;20255;-63
2022/09/23 14:04:24;;;;;;;4.87;1.55;;;17.30;99.90;;;;;;7366318;32;20134;-63
2022/09/23 14:08:30;;;;;;;4.12;1.67;;;17.30;99.90;;;;;;7377998;32;20099;-63
2022/09/23 14:12:32;;;;;;;4.65;1.75;;;17.30;99.90;;;;;;7386090;31;20118;-64
2022/09/23 14:16:39;;;;;;;3.20;1.70;;;17.30;99.90;;;;;;7373612;31;20193;-63
2022/09/23 14:20:49;;;;;;;6.68;1.77;;;17.30;99.90;;;;;;7369920;32;20209;-64
2022/09/23 14:24:51;;;;;;;4.20;1.25;;;17.30;99.90;;;;;;7376850;32;20110;-64
2022/09/23 14:28:53;;;;;;;2.58;1.42;;;17.20;99.90;;;;;;7367439;31;20121;-64
2022/09/23 14:32:54;;;;;;;5.72;1.62;;;17.30;99.90;;;;;;7373217;32;20186;-63
2022/09/23 14:41:23;;;;;;;4.95;1.70;;;17.30;99.90;;;;;;7360186;32;20118;-64
2022/09/23 14:45:29;;;;;;;5.95;1.23;;;17.40;99.90;;;;;;7365841;32;20205;-63
2022/09/23 14:49:31;;;;;;;9.43;1.75;;;17.40;99.90;;;;;;7379062;32;20222;-63
2022/09/23 14:53:44;;;;;;;9.50;1.60;;;17.40;99.90;;;;;;7361280;32;20106;-64
2022/09/23 14:57:47;;;;;;;5.82;1.90;;;17.40;99.90;;;;;;7374941;32;20102;-63
2022/09/23 15:01:48;;;;;;;6.45;1.65;;;17.30;99.90;;;;;;7369867;32;20209;-63
2022/09/23 15:05:58;;;;;;;4.93;1.42;;;17.30;99.90;;;;;;7371509;32;20224;-63
2022/09/23 15:10:00;;;;;;;3.92;1.37;;;17.30;99.90;;;;;;7360417;32;20826;-63
2022/09/23 15:14:04;;;;;;;2.28;0.73;;;17.20;99.90;;;;;;7365593;32;20096;-65
2022/09/23 15:18:30;;;;;;;7.28;0.77;;;17.20;99.90;;;;;;7357262;32;26756;-63
2022/09/23 15:22:53;;;;;;;5.03;0.93;;;17.00;99.90;;;;;;7364497;32;20404;-62
2022/09/23 15:27:29;;;;;;;5.28;0.90;;;17.00;99.90;;;;;;7357351;32;20119;-62
2022/09/23 15:31:51;;;;;;;3.60;0.88;;;16.90;99.90;;;;;;7367418;32;20309;-63
2022/09/23 15:36:20;;;;;;;6.12;1.10;;;16.80;99.90;;;;;;7359221;32;20197;-63
2022/09/23 15:40:34;;;;;;;2.10;1.00;;;16.80;99.90;;;;;;7361887;32;24821;-64
2022/09/23 15:44:36;;;;;;;2.15;0.88;;;16.70;99.90;;;;;;7356022;32;20198;-65
2022/09/23 15:48:42;;;;;;;4.97;0.90;;;16.50;99.90;;;;;;7361277;32;20189;-63
2022/09/23 15:52:44;;;;;;;6.00;1.00;;;16.50;99.90;;;;;;7345481;32;20115;-66
2022/09/23 15:56:46;;;;;;;5.90;1.37;;;16.40;99.90;;;;;;7363623;32;20670;-62
2022/09/23 16:00:52;;;;;;;4.32;1.12;;;16.40;99.90;;;;;;7366925;32;20112;-62
2022/09/23 16:05:00;;;;;;;4.53;1.00;;;16.30;99.90;;;;;;7356938;32;20591;-65
2022/09/23 16:09:01;;;;;;;2.87;0.90;;;16.20;99.90;;;;;;7371160;32;20201;-64
2022/09/23 16:13:09;;;;;;;2.22;0.95;;;16.10;99.90;;;;;;7365875;32;20115;-64
2022/09/23 16:17:13;;;;;;;8.65;1.35;;;16.00;99.90;;;;;;7359034;32;20194;-64
2022/09/23 16:21:18;;;;;;;7.00;1.25;;;16.00;99.90;;;;;;7366058;32;20527;-63
2022/09/23 16:25:24;;;;;;;3.65;1.10;;;15.90;99.90;;;;;;7370831;32;20123;-64
2022/09/23 16:29:26;;;;;;;2.97;1.10;;;15.80;99.90;;;;;;7371958;32;20217;-63
2022/09/23 16:33:28;;;;;;;3.50;1.05;;;15.80;99.90;;;;;;7374390;31;20137;-64
2022/09/23 16:37:29;;;;;;;2.80;1.15;;;15.70;99.90;;;;;;7362248;32;20199;-65
2022/09/23 16:41:32;;;;;;;4.78;1.10;;;15.60;99.90;;;;;;7362248;32;20185;-63
2022/09/23 16:45:33;;;;;;;4.22;1.00;;;15.60;99.90;;;;;;7372026;32;20609;-67
2022/09/23 16:49:35;;;;;;;4.62;1.50;;;15.50;99.90;;;;;;7370920;32;20102;-64
2022/09/23 16:53:38;;;;;;;3.20;1.17;;;15.40;99.90;;;;;;7372838;32;20540;-65
2022/09/23 16:57:40;;;;;;;3.20;1.27;;;15.30;99.90;;;;;;7359107;32;20712;-63
2022/09/23 17:06:02;;;;;;;3.05;1.00;;;15.20;99.90;;;;;;7378881;32;20146;-64
2022/09/23 17:10:09;;;;;;;3.12;1.23;;;15.10;99.90;;;;;;7372335;32;20111;-64
2022/09/23 17:14:11;;;;;;;4.57;1.30;;;15.00;99.90;;;;;;7370680;32;20574;-64
2022/09/23 17:18:13;;;;;;;4.12;1.23;;;15.00;99.90;;;;;;7366676;32;20131;-64
2022/09/23 17:22:20;;;;;;;3.15;1.33;;;14.90;99.90;;;;;;7380845;32;20156;-64
2022/09/23 17:26:23;;;;;;;6.70;1.70;;;14.80;99.90;;;;;;7371322;32;20201;-62
2022/09/23 17:30:25;;;;;;;5.85;4.12;;;14.70;99.90;;;;;;7372004;31;20182;-63
2022/09/23 17:34:27;;;;;;;22.70;15.65;;;14.60;99.90;;;;;;7380586;32;20175;-63
2022/09/23 17:38:29;;;;;;;30.17;20.33;;;14.40;99.90;;;;;;7386788;31;20119;-63
2022/09/23 17:42:30;;;;;;;24.45;15.70;;;14.30;99.90;;;;;;7377119;32;20175;-60
2022/09/23 17:46:32;;;;;;;18.00;14.55;;;14.20;99.90;;;;;;7361387;32;20111;-61
2022/09/23 17:50:34;;;;;;;15.00;9.48;;;14.10;99.90;;;;;;7369463;32;20248;-60
2022/09/23 17:54:35;;;;;;;7.82;4.62;;;13.90;99.90;;;;;;7379358;32;20126;-60
2022/09/23 17:58:37;;;;;;;7.00;2.95;;;13.80;99.90;;;;;;7379480;32;20310;-62
2022/09/23 18:02:39;;;;;;;7.72;2.70;;;13.70;99.90;;;;;;7370910;32;20198;-61
2022/09/23 18:06:41;;;;;;;4.32;2.80;;;13.60;99.90;;;;;;7358758;32;20578;-62
2022/09/23 18:10:43;;;;;;;5.00;2.80;;;13.50;99.90;;;;;;7377494;32;20110;-62
2022/09/23 18:14:46;;;;;;;4.57;3.03;;;13.50;99.90;;;;;;7376808;32;20745;-62
2022/09/23 18:18:52;;;;;;;6.95;3.05;;;13.40;99.90;;;;;;7368452;32;20271;-62
2022/09/23 18:22:54;;;;;;;8.55;2.60;;;13.30;99.90;;;;;;7377063;32;20697;-63
2022/09/23 18:26:58;;;;;;;6.95;2.72;;;13.20;99.90;;;;;;7370748;32;20168;-64
2022/09/23 18:31:00;;;;;;;8.00;2.90;;;13.10;99.90;;;;;;7370792;32;20118;-65
2022/09/23 18:35:02;;;;;;;5.30;2.03;;;13.00;99.90;;;;;;7363805;32;20214;-65
2022/09/23 18:39:04;;;;;;;5.93;2.15;;;12.90;99.90;;;;;;7371256;32;20145;-62
2022/09/23 18:43:05;;;;;;;3.55;1.85;;;12.80;99.90;;;;;;7372787;32;20103;-64
2022/09/23 18:50:37;;;;;;;5.10;1.87;;;12.80;99.90;;;;;;7366613;32;20130;-61
2022/09/23 18:51:30;;;;;;;8.50;2.45;;;12.80;99.90;;;;;;7384022;32;20111;-63
2022/09/23 18:55:36;;;;;;;9.10;1.77;;;12.70;99.90;;;;;;7361000;32;20159;-64
2022/09/23 18:59:38;;;;;;;6.40;1.67;;;12.60;99.90;;;;;;7375524;32;20121;-64
2022/09/23 19:03:40;;;;;;;4.22;2.33;;;12.60;99.90;;;;;;7374784;32;20115;-64
2022/09/23 19:07:42;;;;;;;6.18;2.47;;;12.50;99.90;;;;;;7365265;32;20233;-63
2022/09/23 19:11:44;;;;;;;8.60;3.40;;;12.50;99.90;;;;;;7367682;32;20170;-63
2022/09/23 19:15:47;;;;;;;7.18;3.03;;;12.50;99.90;;;;;;7369245;32;20142;-63
2022/09/23 19:19:49;;;;;;;5.30;2.08;;;12.40;99.90;;;;;;7373595;32;20214;-63
2022/09/23 19:23:54;;;;;;;6.37;1.92;;;12.40;99.90;;;;;;7371060;32;20790;-65
2022/09/23 19:27:55;;;;;;;5.65;2.10;;;12.30;99.90;;;;;;7369652;32;20122;-65
2022/09/23 19:31:59;;;;;;;5.25;1.87;;;12.20;99.90;;;;;;7379317;32;20123;-65
2022/09/23 19:36:01;;;;;;;12.98;2.62;;;12.20;99.90;;;;;;7376114;32;20520;-64
2022/09/23 19:40:02;;;;;;;7.47;2.17;;;12.10;99.90;;;;;;7379152;32;20197;-63
2022/09/23 19:44:06;;;;;;;9.13;2.42;;;12.10;99.90;;;;;;7365415;32;20586;-63
2022/09/23 19:48:08;;;;;;;11.98;2.25;;;12.00;99.90;;;;;;7370955;32;20624;-63
2022/09/23 19:52:10;;;;;;;8.05;2.72;;;12.00;99.90;;;;;;7360997;32;20277;-63
2022/09/23 19:56:16;;;;;;;8.27;2.12;;;12.00;99.90;;;;;;7365991;32;20202;-64
2022/09/23 20:00:19;;;;;;;8.82;2.67;;;11.90;99.90;;;;;;7363086;32;20224;-63
2022/09/23 20:04:20;;;;;;;7.20;2.92;;;11.90;99.90;;;;;;7373086;32;20232;-63
2022/09/23 20:08:23;;;;;;;5.57;2.72;;;11.90;99.90;;;;;;7353428;32;20933;-62
2022/09/23 20:12:25;;;;;;;8.27;3.45;;;11.90;99.90;;;;;;7370903;31;20162;-62
2022/09/23 20:16:30;;;;;;;7.93;3.12;;;11.90;99.90;;;;;;7360109;32;20515;-62
2022/09/23 20:20:32;;;;;;;8.73;2.70;;;11.90;99.90;;;;;;7373306;32;20516;-62
2022/09/23 20:24:34;;;;;;;7.43;3.85;;;11.80;99.90;;;;;;7374953;32;20106;-61
2022/09/23 20:28:36;;;;;;;8.40;3.05;;;11.90;99.90;;;;;;7368438;32;20125;-61
2022/09/23 20:32:37;;;;;;;15.40;7.40;;;11.80;99.90;;;;;;7366834;32;20228;-61
2022/09/23 20:36:45;;;;;;;;;;;11.80;99.90;;;;;;7363277;32;20198;-61
2022/09/23 20:40:54;;;;;;;10.13;5.43;;;11.80;99.90;;;;;;7370400;32;20027;-61
2022/09/23 20:44:56;;;;;;;13.20;6.95;;;11.80;99.90;;;;;;7374910;32;20157;-61
2022/09/23 20:48:57;;;;;;;11.30;6.10;;;11.80;99.90;;;;;;7375472;32;20253;-62
2022/09/23 20:52:59;;;;;;;9.60;6.80;;;11.80;99.90;;;;;;7385538;32;20115;-61
2022/09/23 20:57:01;;;;;;;10.15;6.55;;;11.90;99.90;;;;;;7380861;32;20141;-62
2022/09/23 21:01:09;;;;;;;11.75;7.10;;;11.90;99.90;;;;;;7384228;32;20494;-61
2022/09/23 21:05:11;;;;;;;14.20;7.22;;;11.90;99.90;;;;;;7366973;32;20986;-62
2022/09/23 21:09:12;;;;;;;11.63;6.18;;;11.80;99.90;;;;;;7370104;32;20216;-61
2022/09/23 21:13:14;;;;;;;11.85;4.68;;;11.80;99.90;;;;;;7381143;32;20171;-61
2022/09/23 21:17:16;;;;;;;5.97;3.62;;;11.90;99.90;;;;;;7370244;32;20660;-61
2022/09/23 21:21:20;;;;;;;8.57;3.28;;;11.90;99.90;;;;;;7383400;32;20117;-62
2022/09/23 21:25:22;;;;;;;5.35;3.25;;;11.90;99.90;;;;;;7363560;31;20241;-61
2022/09/23 21:29:29;;;;;;;7.28;3.30;;;11.90;99.90;;;;;;7370691;32;20183;-61
2022/09/23 21:33:31;;;;;;;7.95;3.60;;;11.90;99.90;;;;;;7376673;32;20111;-61
2022/09/23 21:37:34;;;;;;;12.88;3.33;;;11.90;99.90;;;;;;7377023;32;21184;-61
2022/09/23 21:41:36;;;;;;;10.25;3.20;;;11.90;99.90;;;;;;7371261;32;20264;-61
2022/09/23 21:45:38;;;;;;;6.93;2.72;;;12.00;99.90;;;;;;7374135;31;20129;-62
2022/09/23 21:49:40;;;;;;;7.78;2.83;;;11.90;99.90;;;;;;7373678;32;20182;-63
2022/09/23 21:53:43;;;;;;;5.37;2.92;;;12.00;99.90;;;;;;7372158;32;20607;-61
2022/09/23 21:57:45;;;;;;;10.48;3.05;;;12.00;99.90;;;;;;7367530;32;20589;-60
2022/09/23 22:01:48;;;;;;;9.30;5.50;;;11.90;99.90;;;;;;7385897;32;20144;-63